PWSweather.com
Personal Weather Stations
Station Observations
JOE4SPEED
Jupiter, Fl, Jupiter, FL 33458

Jupiter, FlJupiter, FL 33458

Lat: 26.9373, Lon: -80.1101

Elevation: 12

Station Type: Davis VP 2

http://www.joe4speed.com/wxindex.php

Latest ConditionsUpdated 12:50:00 PM EST Friday, Dec 2, 2016
Currently Today's Max Today's Min Today's Average
Temperature 82.5°F28.1°C 83.3°F28.5°C 68.9°F20.5°C 74.2°F23.4°C
Dew Point 71.7°F22.1°C 73.0°F22.8°C 66.2°F19.0°C 69.7°F20.9°C
Winds 4.6 mph N7.4 kmh N 8.1 mph N13.0 kmh N - 3.3 mph 5.3 kmh
Wind Gusts 5.8 mph9.3 kmh 12.7 mph20.4 kmh - -
Humidity 70% 92% 69% 86%
Pressure 30.06 in1017.9 mb 30.09 in1019.0 mb 29.98 in1015.2 mb -
Hour Temp Dew Point Humidity Winds Wind Gusts Pressure Precip Precip Rate Daily Precip Total
12:50 PM 82.5°F28.1°C 71.7°F22.1°C 70% 4.6 mph N7.4 kmh N 5.8 mph9.3 kmh 30.06 in1017.9 mb - 0.00 in0.0 mm 0.00 in0.0 mm
12:40 PM 82.6°F28.1°C 71.8°F22.1°C 70% 6.9 mph NNE11.1 kmh NNE 11.5 mph18.5 kmh 30.06 in1017.9 mb - 0.00 in0.0 mm 0.00 in0.0 mm
12:30 PM 83.0°F28.3°C 71.7°F22.1°C 69% 8.1 mph N13.0 kmh N 10.4 mph16.7 kmh 30.06 in1017.9 mb - 0.00 in0.0 mm 0.00 in0.0 mm
12:20 PM 83.3°F28.5°C 72.1°F22.3°C 69% 6.9 mph N11.1 kmh N 12.7 mph20.4 kmh 30.07 in1018.3 mb - 0.00 in0.0 mm 0.00 in0.0 mm
12:10 PM 83.3°F28.5°C 72.5°F22.5°C 70% 6.9 mph N11.1 kmh N 10.4 mph16.7 kmh 30.07 in1018.3 mb - 0.00 in0.0 mm 0.00 in0.0 mm
12:00 PM 83.2°F28.4°C 71.9°F22.2°C 69% 5.8 mph N9.3 kmh N 8.1 mph13.0 kmh 30.08 in1018.6 mb - 0.00 in0.0 mm 0.00 in0.0 mm
11:50 AM 83.0°F28.3°C 73.0°F22.8°C 72% 5.8 mph N9.3 kmh N 6.9 mph11.1 kmh 30.08 in1018.6 mb - 0.00 in0.0 mm 0.00 in0.0 mm
11:40 AM 82.5°F28.1°C 72.1°F22.3°C 71% 6.9 mph N11.1 kmh N 8.1 mph13.0 kmh 30.09 in1019.0 mb - 0.00 in0.0 mm 0.00 in0.0 mm
11:30 AM 82.3°F27.9°C 72.0°F22.2°C 71% 8.1 mph NNE13.0 kmh NNE 11.5 mph18.5 kmh 30.09 in1019.0 mb - 0.00 in0.0 mm 0.00 in0.0 mm
11:20 AM 82.7°F28.2°C 72.3°F22.4°C 71% 8.1 mph N13.0 kmh N 11.5 mph18.5 kmh 30.09 in1019.0 mb - 0.00 in0.0 mm 0.00 in0.0 mm
11:10 AM 82.3°F27.9°C 72.0°F22.2°C 71% 6.9 mph NE11.1 kmh NE 9.2 mph14.8 kmh 30.09 in1019.0 mb - 0.00 in0.0 mm 0.00 in0.0 mm
11:00 AM 82.4°F28.0°C 72.5°F22.5°C 72% 6.9 mph N11.1 kmh N 9.2 mph14.8 kmh 30.09 in1019.0 mb - 0.00 in0.0 mm 0.00 in0.0 mm
10:50 AM 82.1°F27.8°C 73.0°F22.8°C 74% 5.8 mph NNE9.3 kmh NNE 8.1 mph13.0 kmh 30.09 in1019.0 mb - 0.00 in0.0 mm 0.00 in0.0 mm
10:40 AM 81.6°F27.6°C 72.5°F22.5°C 74% 5.8 mph N9.3 kmh N 9.2 mph14.8 kmh 30.09 in1019.0 mb - 0.00 in0.0 mm 0.00 in0.0 mm
10:30 AM 81.2°F27.3°C 72.5°F22.5°C 75% 4.6 mph N7.4 kmh N 6.9 mph11.1 kmh 30.09 in1019.0 mb - 0.00 in0.0 mm 0.00 in0.0 mm
10:20 AM 80.7°F27.1°C 72.4°F22.4°C 76% 5.8 mph N9.3 kmh N 10.4 mph16.7 kmh 30.09 in1019.0 mb - 0.00 in0.0 mm 0.00 in0.0 mm
10:10 AM 80.1°F26.7°C 71.8°F22.1°C 76% 6.9 mph N11.1 kmh N 11.5 mph18.5 kmh 30.09 in1019.0 mb - 0.00 in0.0 mm 0.00 in0.0 mm
10:00 AM 79.8°F26.6°C 71.9°F22.2°C 77% 6.9 mph N11.1 kmh N 9.2 mph14.8 kmh 30.09 in1019.0 mb - 0.00 in0.0 mm 0.00 in0.0 mm
09:50 AM 79.0°F26.1°C 71.9°F22.2°C 79% 4.6 mph N7.4 kmh N 8.1 mph13.0 kmh 30.09 in1019.0 mb - 0.00 in0.0 mm 0.00 in0.0 mm
09:40 AM 78.2°F25.7°C 71.5°F21.9°C 80% 6.9 mph N11.1 kmh N 8.1 mph13.0 kmh 30.08 in1018.6 mb - 0.00 in0.0 mm 0.00 in0.0 mm
09:30 AM 77.5°F25.3°C 71.6°F22.0°C 82% 5.8 mph N9.3 kmh N 9.2 mph14.8 kmh 30.08 in1018.6 mb - 0.00 in0.0 mm 0.00 in0.0 mm
09:20 AM 76.7°F24.8°C 72.2°F22.3°C 86% 4.6 mph N7.4 kmh N 6.9 mph11.1 kmh 30.08 in1018.6 mb - 0.00 in0.0 mm 0.00 in0.0 mm
09:10 AM 75.4°F24.1°C 72.0°F22.2°C 89% 4.6 mph N7.4 kmh N 6.9 mph11.1 kmh 30.08 in1018.6 mb - 0.00 in0.0 mm 0.00 in0.0 mm
09:00 AM 74.4°F23.6°C 71.6°F22.0°C 91% 2.3 mph NW3.7 kmh NW 4.6 mph7.4 kmh 30.07 in1018.3 mb - 0.00 in0.0 mm 0.00 in0.0 mm
08:50 AM 73.4°F23.0°C 71.0°F21.7°C 92% 2.3 mph NW3.7 kmh NW 5.8 mph9.3 kmh 30.07 in1018.3 mb - 0.00 in0.0 mm 0.00 in0.0 mm
08:40 AM 72.4°F22.4°C 70.0°F21.1°C 92% Calm Calm 1.2 mph1.9 kmh 30.07 in1018.3 mb - 0.00 in0.0 mm 0.00 in0.0 mm
08:30 AM 71.8°F22.1°C 69.3°F20.7°C 92% 3.5 mph NNW5.6 kmh NNW 5.8 mph9.3 kmh 30.07 in1018.3 mb - 0.00 in0.0 mm 0.00 in0.0 mm
08:20 AM 71.2°F21.8°C 68.8°F20.4°C 92% 3.5 mph NW5.6 kmh NW 4.6 mph7.4 kmh 30.07 in1018.3 mb - 0.00 in0.0 mm 0.00 in0.0 mm
08:10 AM 70.7°F21.5°C 68.3°F20.2°C 92% 2.3 mph NW3.7 kmh NW 3.5 mph5.6 kmh 30.07 in1018.3 mb - 0.00 in0.0 mm 0.00 in0.0 mm
08:00 AM 70.2°F21.2°C 67.8°F19.9°C 92% 2.3 mph NW3.7 kmh NW 3.5 mph5.6 kmh 30.06 in1017.9 mb - 0.00 in0.0 mm 0.00 in0.0 mm
07:50 AM 69.8°F21.0°C 67.4°F19.7°C 92% 4.6 mph NW7.4 kmh NW 5.8 mph9.3 kmh 30.06 in1017.9 mb - 0.00 in0.0 mm 0.00 in0.0 mm
07:40 AM 69.6°F20.9°C 67.1°F19.5°C 92% 3.5 mph NW5.6 kmh NW 3.5 mph5.6 kmh 30.06 in1017.9 mb - 0.00 in0.0 mm 0.00 in0.0 mm
07:30 AM 69.5°F20.8°C 67.1°F19.5°C 92% 3.5 mph NW5.6 kmh NW 4.6 mph7.4 kmh 30.06 in1017.9 mb - 0.00 in0.0 mm 0.00 in0.0 mm
07:20 AM 69.5°F20.8°C 67.0°F19.4°C 92% 2.3 mph NW3.7 kmh NW 5.8 mph9.3 kmh 30.06 in1017.9 mb - 0.00 in0.0 mm 0.00 in0.0 mm
07:10 AM 68.9°F20.5°C 66.2°F19.0°C 91% 2.3 mph NW3.7 kmh NW 3.5 mph5.6 kmh 30.05 in1017.6 mb - 0.00 in0.0 mm 0.00 in0.0 mm
07:00 AM 69.0°F20.6°C 66.3°F19.1°C 91% Calm Calm 2.3 mph3.7 kmh 30.05 in1017.6 mb - 0.00 in0.0 mm 0.00 in0.0 mm
06:50 AM 69.1°F20.6°C 66.3°F19.1°C 91% Calm Calm -- 30.05 in1017.6 mb - 0.00 in0.0 mm 0.00 in0.0 mm
06:40 AM 69.2°F20.7°C 66.8°F19.3°C 92% 2.3 mph NW3.7 kmh NW 2.3 mph3.7 kmh 30.05 in1017.6 mb - 0.00 in0.0 mm 0.00 in0.0 mm
06:30 AM 69.3°F20.7°C 66.9°F19.4°C 92% 2.3 mph NW3.7 kmh NW 2.3 mph3.7 kmh 30.04 in1017.3 mb - 0.00 in0.0 mm 0.00 in0.0 mm
06:20 AM 69.4°F20.8°C 67.0°F19.4°C 92% 2.3 mph NW3.7 kmh NW 4.6 mph7.4 kmh 30.03 in1016.9 mb - 0.00 in0.0 mm 0.00 in0.0 mm
06:10 AM 69.5°F20.8°C 66.8°F19.3°C 91% 3.5 mph NW5.6 kmh NW 3.5 mph5.6 kmh 30.03 in1016.9 mb - 0.00 in0.0 mm 0.00 in0.0 mm
06:00 AM 69.7°F20.9°C 66.9°F19.4°C 91% 2.3 mph NW3.7 kmh NW 4.6 mph7.4 kmh 30.03 in1016.9 mb - 0.00 in0.0 mm 0.00 in0.0 mm
05:50 AM 69.9°F21.1°C 67.5°F19.7°C 92% 4.6 mph NW7.4 kmh NW 8.1 mph13.0 kmh 30.03 in1016.9 mb - 0.00 in0.0 mm 0.00 in0.0 mm
05:40 AM 70.1°F21.2°C 67.7°F19.8°C 92% 2.3 mph WNW3.7 kmh WNW 3.5 mph5.6 kmh 30.02 in1016.6 mb - 0.00 in0.0 mm 0.00 in0.0 mm
05:30 AM 70.3°F21.3°C 67.5°F19.7°C 91% 3.5 mph NW5.6 kmh NW 4.6 mph7.4 kmh 30.01 in1016.3 mb - 0.00 in0.0 mm 0.00 in0.0 mm
05:20 AM 70.2°F21.2°C 67.4°F19.7°C 91% 3.5 mph NW5.6 kmh NW 4.6 mph7.4 kmh 30.01 in1016.3 mb - 0.00 in0.0 mm 0.00 in0.0 mm
05:10 AM 70.3°F21.3°C 67.5°F19.7°C 91% 1.2 mph NNW1.9 kmh NNW 2.3 mph3.7 kmh 30.01 in1016.3 mb - 0.00 in0.0 mm 0.00 in0.0 mm
05:00 AM 70.5°F21.4°C 68.1°F20.1°C 92% 2.3 mph NW3.7 kmh NW 6.9 mph11.1 kmh 30.00 in1015.9 mb - 0.00 in0.0 mm 0.00 in0.0 mm
04:50 AM 70.6°F21.4°C 67.8°F19.9°C 91% 3.5 mph NNW5.6 kmh NNW 6.9 mph11.1 kmh 30.00 in1015.9 mb - 0.00 in0.0 mm 0.00 in0.0 mm
04:40 AM 70.7°F21.5°C 67.9°F19.9°C 91% 2.3 mph NW3.7 kmh NW 2.3 mph3.7 kmh 30.00 in1015.9 mb - 0.00 in0.0 mm 0.00 in0.0 mm
04:30 AM 70.6°F21.4°C 67.8°F19.9°C 91% 2.3 mph NW3.7 kmh NW 5.8 mph9.3 kmh 30.00 in1015.9 mb - 0.00 in0.0 mm 0.00 in0.0 mm
04:20 AM 70.6°F21.4°C 67.8°F19.9°C 91% 2.3 mph NW3.7 kmh NW 4.6 mph7.4 kmh 30.00 in1015.9 mb - 0.00 in0.0 mm 0.00 in0.0 mm
04:10 AM 70.6°F21.4°C 67.8°F19.9°C 91% 3.5 mph NNW5.6 kmh NNW 5.8 mph9.3 kmh 30.00 in1015.9 mb - 0.00 in0.0 mm 0.00 in0.0 mm
04:00 AM 70.7°F21.5°C 67.9°F19.9°C 91% 1.2 mph NW1.9 kmh NW 2.3 mph3.7 kmh 29.99 in1015.6 mb - 0.00 in0.0 mm 0.00 in0.0 mm
03:50 AM 70.9°F21.6°C 68.1°F20.1°C 91% 3.5 mph NNW5.6 kmh NNW 5.8 mph9.3 kmh 29.99 in1015.6 mb - 0.00 in0.0 mm 0.00 in0.0 mm
03:40 AM 71.0°F21.7°C 68.2°F20.1°C 91% 1.2 mph NW1.9 kmh NW 4.6 mph7.4 kmh 29.99 in1015.6 mb - 0.00 in0.0 mm 0.00 in0.0 mm
03:30 AM 71.2°F21.8°C 68.4°F20.2°C 91% Calm Calm -- 29.99 in1015.6 mb - 0.00 in0.0 mm 0.00 in0.0 mm
03:20 AM 71.4°F21.9°C 68.6°F20.3°C 91% 1.2 mph NNW1.9 kmh NNW 2.3 mph3.7 kmh 29.99 in1015.6 mb - 0.00 in0.0 mm 0.00 in0.0 mm
03:10 AM 71.6°F22.0°C 68.8°F20.4°C 91% 1.2 mph NW1.9 kmh NW 2.3 mph3.7 kmh 29.98 in1015.2 mb - 0.00 in0.0 mm 0.00 in0.0 mm
03:00 AM 71.9°F22.2°C 69.2°F20.7°C 91% 2.3 mph NNW3.7 kmh NNW 3.5 mph5.6 kmh 29.98 in1015.2 mb - 0.00 in0.0 mm 0.00 in0.0 mm
02:50 AM 72.2°F22.3°C 69.4°F20.8°C 91% 3.5 mph NW5.6 kmh NW 6.9 mph11.1 kmh 29.98 in1015.2 mb - 0.00 in0.0 mm 0.00 in0.0 mm
02:40 AM 72.5°F22.5°C 69.7°F20.9°C 91% 1.2 mph NW1.9 kmh NW 3.5 mph5.6 kmh 29.98 in1015.2 mb - 0.00 in0.0 mm 0.00 in0.0 mm
02:30 AM 72.7°F22.6°C 69.9°F21.1°C 91% 1.2 mph N1.9 kmh N 2.3 mph3.7 kmh 29.98 in1015.2 mb - 0.00 in0.0 mm 0.00 in0.0 mm
02:20 AM 72.8°F22.7°C 70.0°F21.1°C 91% 2.3 mph NW3.7 kmh NW 2.3 mph3.7 kmh 29.98 in1015.2 mb - 0.00 in0.0 mm 0.00 in0.0 mm
02:10 AM 72.9°F22.7°C 70.1°F21.2°C 91% 1.2 mph NW1.9 kmh NW 5.8 mph9.3 kmh 29.98 in1015.2 mb - 0.00 in0.0 mm 0.00 in0.0 mm
02:00 AM 73.1°F22.8°C 70.3°F21.3°C 91% 1.2 mph NW1.9 kmh NW 3.5 mph5.6 kmh 29.98 in1015.2 mb - 0.00 in0.0 mm 0.00 in0.0 mm
01:50 AM 73.1°F22.8°C 70.3°F21.3°C 91% 3.5 mph NW5.6 kmh NW 3.5 mph5.6 kmh 29.99 in1015.6 mb - 0.00 in0.0 mm 0.00 in0.0 mm
01:40 AM 73.3°F22.9°C 70.5°F21.4°C 91% 2.3 mph NNW3.7 kmh NNW 4.6 mph7.4 kmh 29.99 in1015.6 mb - 0.00 in0.0 mm 0.00 in0.0 mm
01:30 AM 73.3°F22.9°C 70.5°F21.4°C 91% 2.3 mph N3.7 kmh N 4.6 mph7.4 kmh 29.99 in1015.6 mb - 0.00 in0.0 mm 0.00 in0.0 mm
01:20 AM 73.1°F22.8°C 70.3°F21.3°C 91% 2.3 mph N3.7 kmh N 4.6 mph7.4 kmh 29.99 in1015.6 mb - 0.00 in0.0 mm 0.00 in0.0 mm
01:10 AM 73.0°F22.8°C 70.2°F21.2°C 91% 2.3 mph NNW3.7 kmh NNW 3.5 mph5.6 kmh 29.99 in1015.6 mb - 0.00 in0.0 mm 0.00 in0.0 mm
01:00 AM 73.0°F22.8°C 70.2°F21.2°C 91% 2.3 mph NW3.7 kmh NW 4.6 mph7.4 kmh 29.99 in1015.6 mb - 0.00 in0.0 mm 0.00 in0.0 mm
12:50 AM 73.1°F22.8°C 70.3°F21.3°C 91% Calm Calm -- 29.98 in1015.2 mb - 0.00 in0.0 mm 0.00 in0.0 mm
12:40 AM 73.1°F22.8°C 70.3°F21.3°C 91% Calm Calm -- 29.99 in1015.6 mb - 0.00 in0.0 mm 0.00 in0.0 mm
12:30 AM 73.0°F22.8°C 70.2°F21.2°C 91% Calm Calm -- 29.99 in1015.6 mb - 0.00 in0.0 mm 0.00 in0.0 mm
12:20 AM 73.1°F22.8°C 70.3°F21.3°C 91% Calm Calm -- 29.99 in1015.6 mb - 0.00 in0.0 mm 0.00 in0.0 mm
12:10 AM 73.2°F22.9°C 70.4°F21.3°C 91% Calm Calm -- 29.99 in1015.6 mb - 0.00 in0.0 mm 0.00 in0.0 mm
12:00 AM 73.3°F22.9°C 70.5°F21.4°C 91% Calm Calm -- 29.98 in1015.2 mb - 0.00 in0.0 mm 0.00 in0.0 mm